Time;durP1;ratioP1;P1;durP2;ratioP2;P2;SDS_P1;SDS_P2;PMS_P1;PMS_P2;Temp;Humidity;BMP_temperature;BMP_pressure;BME280_temperature;BME280_humidity;BME280_pressure;Samples;Min_cycle;Max_cycle;Signal;HPM_P1;HPM_P2
2021/05/23 00:02:22;;;;;;;0.00;0.00;;;10.20;99.90;;;;;;5075839;28;20218;-67
2021/05/23 00:04:49;;;;;;;0.00;0.00;;;10.20;99.90;;;;;;5081235;28;20596;-66
2021/05/23 00:07:16;;;;;;;0.10;0.10;;;10.10;99.90;;;;;;5088587;28;20823;-67
2021/05/23 00:09:44;;;;;;;0.13;0.13;;;10.10;99.90;;;;;;5081585;28;20205;-67
2021/05/23 00:12:14;;;;;;;0.30;0.30;;;10.10;99.90;;;;;;5079153;28;20233;-67
2021/05/23 00:14:41;;;;;;;6.60;0.73;;;10.10;99.90;;;;;;5083319;28;20198;-67
2021/05/23 00:17:08;;;;;;;0.87;0.63;;;10.10;99.90;;;;;;5078577;28;21025;-68
2021/05/23 00:19:34;;;;;;;0.10;0.10;;;10.00;99.90;;;;;;5080356;28;20206;-67
2021/05/23 00:22:01;;;;;;;1.80;1.60;;;10.00;99.90;;;;;;5083690;28;20213;-67
2021/05/23 00:24:28;;;;;;;0.30;0.30;;;10.00;99.90;;;;;;5082068;28;20229;-67
2021/05/23 00:26:55;;;;;;;0.00;0.00;;;10.00;99.90;;;;;;5083360;28;20716;-67
2021/05/23 00:29:22;;;;;;;0.03;0.03;;;10.10;99.90;;;;;;5085420;28;20198;-66
2021/05/23 00:31:48;;;;;;;0.27;0.27;;;10.10;99.90;;;;;;5078471;28;20248;-67
2021/05/23 00:34:15;;;;;;;0.30;0.30;;;10.20;99.90;;;;;;5082197;28;22291;-66
2021/05/23 00:36:41;;;;;;;7.63;3.70;;;10.20;99.90;;;;;;5081759;28;20195;-66
2021/05/23 00:39:08;;;;;;;1.37;1.30;;;10.20;99.90;;;;;;5081086;28;20206;-66
2021/05/23 00:41:34;;;;;;;0.57;0.57;;;10.30;99.90;;;;;;5085272;28;20218;-66
2021/05/23 00:44:03;;;;;;;0.07;0.07;;;10.30;99.90;;;;;;5081492;28;20221;-66
2021/05/23 00:46:29;;;;;;;0.30;0.30;;;10.40;99.90;;;;;;5078344;28;20270;-67
2021/05/23 00:48:56;;;;;;;0.90;0.67;;;10.40;99.90;;;;;;5081518;28;20210;-66
2021/05/23 00:51:22;;;;;;;1.93;1.83;;;10.40;99.90;;;;;;5082679;28;20199;-66
2021/05/23 00:53:49;;;;;;;0.67;0.67;;;10.40;99.90;;;;;;5080743;28;20532;-66
2021/05/23 00:56:18;;;;;;;1.37;0.70;;;10.40;99.90;;;;;;5082048;28;20222;-67
2021/05/23 00:58:45;;;;;;;1.53;1.27;;;10.40;99.90;;;;;;5086342;28;20206;-66
2021/05/23 01:01:15;;;;;;;0.60;0.60;;;10.40;99.90;;;;;;5075888;28;20259;-67
2021/05/23 01:03:58;;;;;;;0.27;0.27;;;10.40;99.90;;;;;;5083400;28;20226;-66
2021/05/23 01:06:25;;;;;;;1.43;1.40;;;10.40;99.90;;;;;;5086864;28;20235;-66
2021/05/23 01:08:52;;;;;;;1.57;1.23;;;10.40;99.90;;;;;;5086375;28;20231;-66
2021/05/23 01:11:52;;;;;;;1.20;1.13;;;10.40;99.90;;;;;;5088082;28;20196;-65
2021/05/23 01:14:40;;;;;;;0.30;0.30;;;10.30;99.90;;;;;;5081130;28;20251;-66
2021/05/23 01:17:11;;;;;;;0.70;0.70;;;10.30;99.90;;;;;;5086511;28;20202;-67
2021/05/23 01:19:50;;;;;;;0.30;0.30;;;10.30;99.90;;;;;;5084808;28;20203;-66
2021/05/23 01:22:23;;;;;;;0.00;0.00;;;10.30;99.90;;;;;;5084537;28;20202;-66
2021/05/23 01:24:57;;;;;;;0.33;0.13;;;10.30;99.90;;;;;;5085580;28;20214;-66
2021/05/23 01:27:33;;;;;;;1.73;0.53;;;10.30;99.90;;;;;;5088811;28;20279;-66
2021/05/23 01:30:01;;;;;;;0.10;0.10;;;10.30;99.90;;;;;;5081095;28;20190;-67
2021/05/23 01:32:27;;;;;;;0.50;0.50;;;10.20;99.90;;;;;;5081155;28;20206;-66
2021/05/23 01:34:54;;;;;;;0.20;0.20;;;10.20;99.90;;;;;;5078045;28;20807;-67
2021/05/23 01:37:24;;;;;;;0.77;0.57;;;10.20;99.90;;;;;;5078699;28;20202;-66
2021/05/23 01:39:51;;;;;;;1.70;1.60;;;10.10;99.90;;;;;;5080090;28;20832;-66
2021/05/23 01:42:20;;;;;;;0.47;0.47;;;10.10;99.90;;;;;;5078640;28;20683;-67
2021/05/23 01:44:47;;;;;;;1.43;1.33;;;10.10;99.90;;;;;;5077524;28;20233;-66
2021/05/23 01:47:13;;;;;;;2.80;1.17;;;10.00;99.90;;;;;;5079514;28;20205;-67
2021/05/23 01:49:40;;;;;;;1.03;1.03;;;10.00;99.90;;;;;;5079789;28;20205;-66
2021/05/23 01:52:06;;;;;;;0.00;0.00;;;10.00;99.90;;;;;;5077342;28;20667;-67
2021/05/23 01:54:33;;;;;;;0.60;0.53;;;10.00;99.90;;;;;;5079362;28;20205;-67
2021/05/23 01:57:00;;;;;;;3.23;2.47;;;10.00;99.90;;;;;;5077591;28;20206;-67
2021/05/23 01:59:27;;;;;;;1.37;1.03;;;10.10;99.90;;;;;;5076475;28;20237;-67
2021/05/23 02:01:53;;;;;;;0.83;0.83;;;10.10;99.90;;;;;;5078670;28;20214;-67
2021/05/23 02:04:22;;;;;;;0.27;0.27;;;10.10;99.90;;;;;;5079673;28;20226;-67
2021/05/23 02:06:49;;;;;;;0.10;0.10;;;10.20;99.90;;;;;;5077814;28;20230;-68
2021/05/23 02:09:16;;;;;;;2.30;0.83;;;10.10;99.90;;;;;;5077084;28;20206;-66
2021/05/23 02:11:43;;;;;;;1.63;1.00;;;10.10;99.90;;;;;;5074923;28;20202;-67
2021/05/23 02:14:10;;;;;;;1.20;1.20;;;10.10;99.90;;;;;;5075693;28;20203;-67
2021/05/23 02:16:38;;;;;;;1.50;0.50;;;10.10;99.90;;;;;;5077558;28;20238;-67
2021/05/23 02:19:06;;;;;;;1.27;1.13;;;10.10;99.90;;;;;;5077434;28;20207;-67
2021/05/23 02:21:33;;;;;;;0.30;0.30;;;10.00;99.90;;;;;;5077356;28;20710;-67
2021/05/23 02:23:59;;;;;;;1.33;0.93;;;10.00;99.90;;;;;;5077658;28;20229;-66
2021/05/23 02:26:26;;;;;;;0.53;0.53;;;10.00;99.90;;;;;;5075336;28;20790;-67
2021/05/23 02:28:54;;;;;;;0.70;0.70;;;10.00;99.90;;;;;;5079565;28;20194;-66
2021/05/23 02:31:21;;;;;;;2.90;0.73;;;10.00;99.90;;;;;;5076727;28;20202;-67
2021/05/23 02:33:48;;;;;;;1.10;1.00;;;9.90;99.90;;;;;;5076469;28;20271;-66
2021/05/23 02:36:15;;;;;;;0.57;0.30;;;9.90;99.90;;;;;;5074538;28;20198;-66
2021/05/23 02:38:41;;;;;;;1.47;1.37;;;9.90;99.90;;;;;;5083743;28;20820;-66
2021/05/23 02:41:08;;;;;;;0.00;0.00;;;9.80;99.90;;;;;;5079769;28;20548;-66
2021/05/23 02:43:34;;;;;;;1.33;1.23;;;9.80;99.90;;;;;;5077972;28;20226;-67
2021/05/23 02:46:03;;;;;;;0.00;0.00;;;9.80;99.90;;;;;;5075582;28;20205;-67
2021/05/23 02:48:30;;;;;;;2.17;1.60;;;9.80;99.90;;;;;;5078734;28;20198;-66
2021/05/23 02:50:59;;;;;;;1.13;1.03;;;9.80;99.90;;;;;;5087042;28;20209;-66
2021/05/23 02:53:25;;;;;;;1.70;1.60;;;9.80;99.90;;;;;;5073308;28;21820;-66
2021/05/23 02:55:53;;;;;;;0.33;0.33;;;9.80;99.90;;;;;;5078028;28;20251;-66
2021/05/23 02:58:20;;;;;;;2.17;1.97;;;9.80;99.90;;;;;;5076575;28;20202;-66
2021/05/23 03:00:47;;;;;;;2.80;0.90;;;9.80;99.90;;;;;;5074226;28;20260;-66
2021/05/23 03:03:15;;;;;;;0.40;0.40;;;9.80;99.90;;;;;;5076817;28;20205;-66
2021/05/23 03:05:42;;;;;;;2.73;1.50;;;9.80;99.90;;;;;;5078871;28;20703;-66
2021/05/23 03:08:10;;;;;;;0.23;0.23;;;9.80;99.90;;;;;;5078496;28;20221;-66
2021/05/23 03:10:42;;;;;;;1.50;1.33;;;9.80;99.90;;;;;;5073382;28;20213;-67
2021/05/23 03:13:09;;;;;;;1.90;1.33;;;9.80;99.90;;;;;;5077596;28;20234;-66
2021/05/23 03:15:37;;;;;;;7.80;1.87;;;9.70;99.90;;;;;;5085503;28;20202;-66
2021/05/23 03:18:04;;;;;;;0.77;0.77;;;9.70;99.90;;;;;;5081536;28;20198;-65
2021/05/23 03:20:31;;;;;;;1.73;1.50;;;9.70;99.90;;;;;;5080606;28;20197;-68
2021/05/23 03:22:59;;;;;;;1.07;1.07;;;9.70;99.90;;;;;;5077095;28;20206;-66
2021/05/23 03:25:28;;;;;;;0.50;0.50;;;9.70;99.90;;;;;;5071529;28;20511;-67
2021/05/23 03:27:55;;;;;;;0.60;0.60;;;9.60;99.90;;;;;;5069851;28;20199;-66
2021/05/23 03:30:24;;;;;;;0.40;0.40;;;9.60;99.90;;;;;;5079985;28;20205;-65
2021/05/23 03:32:51;;;;;;;0.40;0.03;;;9.60;99.90;;;;;;5077045;28;20249;-66
2021/05/23 03:35:18;;;;;;;0.30;0.30;;;9.60;99.90;;;;;;5080898;28;20201;-65
2021/05/23 03:37:45;;;;;;;0.33;0.33;;;9.50;99.90;;;;;;5082867;28;20208;-65
2021/05/23 03:40:15;;;;;;;0.43;0.43;;;9.50;99.90;;;;;;5082442;28;20255;-65
2021/05/23 03:42:43;;;;;;;0.93;0.40;;;9.50;99.90;;;;;;5079528;28;20957;-65
2021/05/23 03:45:11;;;;;;;0.00;0.00;;;9.40;99.90;;;;;;5083613;28;20226;-66
2021/05/23 03:47:38;;;;;;;0.00;0.00;;;9.40;99.90;;;;;;5083293;28;20194;-66
2021/05/23 03:50:07;;;;;;;0.10;0.10;;;9.40;99.90;;;;;;5080239;28;20202;-65
2021/05/23 03:52:33;;;;;;;0.57;0.33;;;9.30;99.90;;;;;;5081194;28;20707;-65
2021/05/23 03:55:00;;;;;;;0.47;0.43;;;9.40;99.90;;;;;;5082857;28;20202;-65
2021/05/23 03:57:26;;;;;;;0.13;0.13;;;9.40;99.90;;;;;;5081440;28;20292;-65
2021/05/23 03:59:54;;;;;;;0.20;0.20;;;9.40;99.90;;;;;;5077032;28;20203;-66
2021/05/23 04:02:20;;;;;;;1.17;0.43;;;9.40;99.90;;;;;;5073449;28;20275;-66
2021/05/23 04:04:48;;;;;;;0.43;0.43;;;9.30;99.90;;;;;;5083874;28;20218;-65
2021/05/23 04:07:16;;;;;;;0.40;0.20;;;9.30;99.90;;;;;;5083777;28;20293;-65
2021/05/23 04:09:42;;;;;;;0.53;0.20;;;9.30;99.90;;;;;;5077807;28;20205;-64
2021/05/23 04:12:12;;;;;;;0.00;0.00;;;9.20;99.90;;;;;;5079726;28;20217;-66
2021/05/23 04:14:39;;;;;;;0.20;0.20;;;9.20;99.90;;;;;;5076669;28;20829;-65
2021/05/23 04:17:06;;;;;;;0.50;0.50;;;9.20;99.90;;;;;;5078766;28;20198;-65
2021/05/23 04:19:32;;;;;;;0.33;0.33;;;9.10;99.90;;;;;;5072156;28;20195;-65
2021/05/23 04:21:59;;;;;;;1.30;0.87;;;9.10;99.90;;;;;;5076394;28;20203;-65
2021/05/23 04:24:25;;;;;;;0.10;0.10;;;9.10;99.90;;;;;;5077956;28;20256;-66
2021/05/23 04:26:52;;;;;;;0.57;0.40;;;9.20;99.90;;;;;;5077980;28;20214;-66
2021/05/23 04:29:18;;;;;;;3.30;0.87;;;9.10;99.90;;;;;;5078302;28;20207;-65
2021/05/23 04:31:45;;;;;;;1.17;0.90;;;9.10;99.90;;;;;;5077775;28;20211;-66
2021/05/23 04:34:12;;;;;;;0.03;0.03;;;9.10;99.90;;;;;;5078648;28;20225;-66
2021/05/23 04:36:39;;;;;;;0.30;0.30;;;9.10;99.90;;;;;;5084084;28;20191;-66
2021/05/23 04:39:06;;;;;;;0.00;0.00;;;9.00;99.90;;;;;;5081834;28;20210;-66
2021/05/23 04:41:33;;;;;;;0.30;0.30;;;9.00;99.90;;;;;;5076168;28;20293;-65
2021/05/23 04:44:00;;;;;;;0.00;0.00;;;9.00;99.90;;;;;;5075034;28;20641;-66
2021/05/23 04:46:26;;;;;;;0.67;0.47;;;9.10;99.90;;;;;;5077355;28;20203;-65
2021/05/23 04:48:53;;;;;;;0.00;0.00;;;9.20;99.90;;;;;;5080198;28;20194;-66
2021/05/23 04:51:21;;;;;;;0.03;0.03;;;9.20;99.90;;;;;;5082548;28;20564;-65
2021/05/23 04:53:47;;;;;;;2.17;0.47;;;9.30;99.90;;;;;;5083143;28;20273;-65
2021/05/23 04:56:14;;;;;;;2.43;1.10;;;9.30;99.90;;;;;;5079261;28;20202;-66
2021/05/23 04:58:40;;;;;;;0.80;0.27;;;9.40;99.90;;;;;;5074857;28;21081;-66
2021/05/23 05:01:07;;;;;;;0.00;0.00;;;9.30;99.90;;;;;;5079758;28;20206;-66
2021/05/23 05:03:33;;;;;;;1.17;1.07;;;9.30;99.90;;;;;;5075906;28;20222;-67
2021/05/23 05:06:00;;;;;;;0.63;0.63;;;9.30;99.90;;;;;;5079002;28;20202;-65
2021/05/23 05:08:27;;;;;;;0.00;0.00;;;9.30;99.90;;;;;;5077862;28;20202;-67
2021/05/23 05:10:53;;;;;;;0.20;0.20;;;9.30;99.90;;;;;;5079998;28;20198;-66
2021/05/23 05:13:20;;;;;;;0.03;0.03;;;9.30;99.90;;;;;;5081637;28;20234;-66
2021/05/23 05:15:47;;;;;;;2.10;0.83;;;9.40;99.90;;;;;;5078513;28;20206;-66
2021/05/23 05:18:13;;;;;;;0.83;0.30;;;9.40;99.90;;;;;;5079437;28;20206;-66
2021/05/23 05:20:40;;;;;;;0.87;0.87;;;9.50;99.90;;;;;;5077655;28;21241;-66
2021/05/23 05:23:06;;;;;;;0.30;0.30;;;9.60;99.90;;;;;;5078362;28;20241;-66
2021/05/23 05:25:34;;;;;;;0.00;0.00;;;9.90;99.90;;;;;;5075087;28;20283;-66
2021/05/23 05:28:00;;;;;;;0.63;0.63;;;10.00;99.90;;;;;;5079734;28;20259;-66
2021/05/23 05:30:27;;;;;;;0.00;0.00;;;10.00;99.90;;;;;;5076806;28;20217;-66
2021/05/23 05:32:54;;;;;;;1.80;1.00;;;10.00;99.90;;;;;;5075688;28;20210;-67
2021/05/23 05:35:20;;;;;;;0.33;0.30;;;9.90;99.90;;;;;;5077780;28;20248;-67
2021/05/23 05:37:47;;;;;;;0.20;0.20;;;9.90;99.90;;;;;;5083483;28;20203;-66
2021/05/23 05:40:14;;;;;;;0.10;0.10;;;10.00;99.90;;;;;;5081480;28;20798;-67
2021/05/23 05:42:42;;;;;;;0.10;0.10;;;10.10;99.90;;;;;;5083633;28;20221;-65
2021/05/23 05:45:09;;;;;;;0.20;0.20;;;10.30;99.90;;;;;;5082897;28;20237;-66
2021/05/23 05:47:36;;;;;;;0.00;0.00;;;10.70;99.90;;;;;;5077556;28;20263;-66
2021/05/23 05:50:03;;;;;;;5.00;3.60;;;10.80;99.90;;;;;;5080166;28;20819;-67
2021/05/23 05:52:30;;;;;;;0.47;0.47;;;10.90;99.90;;;;;;5076511;28;20863;-66
2021/05/23 05:54:56;;;;;;;0.47;0.47;;;11.30;99.90;;;;;;5078392;28;20198;-67
2021/05/23 05:57:23;;;;;;;0.20;0.20;;;12.00;99.90;;;;;;5078669;28;20194;-66
2021/05/23 05:59:50;;;;;;;0.37;0.37;;;12.60;99.90;;;;;;5075555;28;20909;-67
2021/05/23 06:02:17;;;;;;;0.07;0.07;;;12.60;99.90;;;;;;5076387;28;20210;-66
2021/05/23 06:04:44;;;;;;;0.63;0.33;;;12.40;99.90;;;;;;5079738;28;20592;-66
2021/05/23 06:07:11;;;;;;;0.37;0.37;;;11.90;99.90;;;;;;5076936;28;20987;-66
2021/05/23 06:09:37;;;;;;;1.10;0.47;;;11.60;99.90;;;;;;5077344;28;21508;-66
2021/05/23 06:12:05;;;;;;;0.00;0.00;;;11.40;99.90;;;;;;5076413;28;20230;-66
2021/05/23 06:14:31;;;;;;;0.50;0.30;;;11.30;99.90;;;;;;5079007;28;20210;-65
2021/05/23 06:16:59;;;;;;;0.90;0.90;;;11.30;99.90;;;;;;5077122;28;20233;-65
2021/05/23 06:19:25;;;;;;;1.63;0.70;;;11.90;99.90;;;;;;5077925;28;20206;-66
2021/05/23 06:21:52;;;;;;;4.13;0.50;;;13.10;99.90;;;;;;5078446;28;20197;-65
2021/05/23 06:24:18;;;;;;;0.00;0.00;;;14.10;99.90;;;;;;5075420;28;20225;-66
2021/05/23 06:26:45;;;;;;;1.30;1.10;;;14.40;99.90;;;;;;5075641;28;20209;-70
2021/05/23 06:29:12;;;;;;;0.53;0.43;;;14.20;99.90;;;;;;5076653;28;20225;-66
2021/05/23 06:31:38;;;;;;;0.40;0.30;;;14.00;99.90;;;;;;5074938;28;20210;-66
2021/05/23 06:34:06;;;;;;;0.00;0.00;;;14.10;99.90;;;;;;5071557;28;20206;-67
2021/05/23 06:36:32;;;;;;;0.00;0.00;;;14.10;99.90;;;;;;5073829;28;20206;-67
2021/05/23 06:38:59;;;;;;;0.40;0.30;;;13.70;99.90;;;;;;5073928;28;20199;-67
2021/05/23 06:41:25;;;;;;;0.53;0.53;;;13.40;99.90;;;;;;5071215;28;20675;-66
2021/05/23 06:43:52;;;;;;;0.50;0.50;;;13.20;99.90;;;;;;5071934;28;20269;-65
2021/05/23 06:46:18;;;;;;;0.40;0.40;;;13.30;99.90;;;;;;5075541;28;20222;-66
2021/05/23 06:48:46;;;;;;;2.00;0.27;;;13.50;99.90;;;;;;5071734;28;20213;-65
2021/05/23 06:51:13;;;;;;;0.50;0.50;;;13.90;99.90;;;;;;5073404;28;20842;-66
2021/05/23 06:53:41;;;;;;;0.30;0.30;;;14.10;99.90;;;;;;5073623;28;20564;-67
2021/05/23 06:56:08;;;;;;;0.20;0.20;;;14.30;99.90;;;;;;5076174;28;20255;-66
2021/05/23 06:58:34;;;;;;;0.40;0.17;;;14.80;99.90;;;;;;5069971;28;20259;-64
2021/05/23 07:01:02;;;;;;;1.57;0.90;;;15.40;99.90;;;;;;5074574;28;20352;-64
2021/05/23 07:03:29;;;;;;;0.10;0.10;;;15.80;99.90;;;;;;5074324;28;20206;-64
2021/05/23 07:05:55;;;;;;;0.00;0.00;;;16.10;99.90;;;;;;5072400;28;20210;-66
2021/05/23 07:08:22;;;;;;;0.97;0.87;;;16.40;99.90;;;;;;5072239;28;20207;-62
2021/05/23 07:10:50;;;;;;;2.47;1.60;;;16.60;99.90;;;;;;5071998;28;20209;-64
2021/05/23 07:13:16;;;;;;;0.40;0.40;;;16.90;99.90;;;;;;5074645;28;20250;-67
2021/05/23 07:15:43;;;;;;;0.57;0.57;;;17.10;99.90;;;;;;5072998;28;20681;-67
2021/05/23 07:18:10;;;;;;;0.40;0.40;;;17.30;99.90;;;;;;5077024;28;20202;-67
2021/05/23 07:20:37;;;;;;;0.10;0.10;;;17.50;99.90;;;;;;5077556;28;20672;-66
2021/05/23 07:23:03;;;;;;;0.43;0.43;;;17.50;99.90;;;;;;5076744;28;20202;-66
2021/05/23 07:25:33;;;;;;;0.20;0.20;;;17.50;99.90;;;;;;5072678;28;20230;-67
2021/05/23 07:27:59;;;;;;;1.10;0.60;;;17.40;99.90;;;;;;5076050;28;20549;-67
2021/05/23 07:30:26;;;;;;;0.20;0.20;;;17.50;99.90;;;;;;5075659;28;20210;-66
2021/05/23 07:32:53;;;;;;;0.30;0.30;;;17.60;99.90;;;;;;5075194;28;20213;-66
2021/05/23 07:35:19;;;;;;;0.03;0.03;;;17.90;99.90;;;;;;5076128;28;20630;-66
2021/05/23 07:37:46;;;;;;;1.00;0.53;;;18.00;99.90;;;;;;5074804;28;21682;-67
2021/05/23 07:40:13;;;;;;;0.10;0.10;;;18.10;99.90;;;;;;5079066;28;20205;-66
2021/05/23 07:42:42;;;;;;;0.25;0.25;;;18.40;99.90;;;;;;5074686;28;20609;-67
2021/05/23 07:45:10;;;;;;;1.48;0.80;;;18.40;99.90;;;;;;5069874;28;20588;-66
2021/05/23 07:47:36;;;;;;;0.30;0.17;;;18.40;99.90;;;;;;5075227;28;20198;-67
2021/05/23 07:50:03;;;;;;;2.07;1.37;;;18.20;99.90;;;;;;5072675;28;20442;-67
2021/05/23 07:52:30;;;;;;;0.20;0.20;;;18.40;99.90;;;;;;5073869;28;20594;-67
2021/05/23 07:54:56;;;;;;;0.63;0.25;;;18.50;99.90;;;;;;5071392;28;20206;-67
2021/05/23 07:57:23;;;;;;;0.90;0.52;;;18.30;99.90;;;;;;5073624;28;20575;-67
2021/05/23 07:59:52;;;;;;;1.53;0.73;;;18.40;99.90;;;;;;5074035;28;20198;-68
2021/05/23 08:02:18;;;;;;;0.20;0.20;;;18.70;99.90;;;;;;5070916;28;20206;-68
2021/05/23 08:04:45;;;;;;;7.03;1.02;;;18.70;99.90;;;;;;5072516;28;20233;-67
2021/05/23 08:07:12;;;;;;;0.05;0.05;;;18.90;99.90;;;;;;5074242;28;20202;-68
2021/05/23 08:09:38;;;;;;;0.47;0.28;;;19.10;99.90;;;;;;5074791;28;20614;-65
2021/05/23 08:12:05;;;;;;;0.13;0.13;;;19.30;99.90;;;;;;5075766;28;20250;-70
2021/05/23 08:14:32;;;;;;;1.00;0.47;;;19.30;99.90;;;;;;5075320;28;20203;-70
2021/05/23 08:16:59;;;;;;;0.85;0.40;;;19.20;99.90;;;;;;5079700;28;20207;-71
2021/05/23 08:19:26;;;;;;;0.15;0.10;;;19.20;99.90;;;;;;5077817;28;20205;-67
2021/05/23 08:21:52;;;;;;;0.10;0.10;;;19.10;99.90;;;;;;5078981;28;20247;-69
2021/05/23 08:24:19;;;;;;;0.30;0.30;;;19.00;99.90;;;;;;5078589;28;20244;-66
2021/05/23 08:26:45;;;;;;;0.03;0.03;;;18.80;99.90;;;;;;5079532;28;20218;-67
2021/05/23 08:29:12;;;;;;;0.77;0.77;;;18.60;99.90;;;;;;5082221;28;20212;-68
2021/05/23 08:31:39;;;;;;;0.33;0.17;;;18.40;99.90;;;;;;5082527;28;20198;-67
2021/05/23 08:34:07;;;;;;;0.70;0.33;;;17.40;99.90;;;;;;5078629;28;20201;-67
2021/05/23 08:36:33;;;;;;;2.53;0.47;;;17.70;99.90;;;;;;5080974;28;20615;-68
2021/05/23 08:39:00;;;;;;;0.20;0.20;;;17.10;99.90;;;;;;5079178;28;20202;-68
2021/05/23 08:41:26;;;;;;;1.40;0.30;;;15.60;99.90;;;;;;5078514;28;20206;-67
2021/05/23 08:43:53;;;;;;;2.57;0.70;;;14.70;99.90;;;;;;5081457;28;20317;-68
2021/05/23 08:46:20;;;;;;;0.60;0.20;;;14.70;99.90;;;;;;5081166;28;20209;-67
2021/05/23 08:48:48;;;;;;;0.47;0.23;;;14.90;99.90;;;;;;5081225;28;20692;-66
2021/05/23 08:51:15;;;;;;;1.27;1.00;;;14.70;99.90;;;;;;5079372;28;20213;-66
2021/05/23 08:53:44;;;;;;;0.40;0.40;;;15.20;99.90;;;;;;5079044;28;20675;-66
2021/05/23 08:56:10;;;;;;;0.67;0.43;;;16.40;99.90;;;;;;5081946;28;20276;-67
2021/05/23 08:58:37;;;;;;;0.20;0.20;;;17.50;99.90;;;;;;5076944;28;20214;-67
2021/05/23 09:01:03;;;;;;;0.10;0.10;;;17.50;99.90;;;;;;5084349;28;20211;-66
2021/05/23 09:03:30;;;;;;;0.10;0.10;;;17.00;99.90;;;;;;5078664;28;20203;-67
2021/05/23 09:05:56;;;;;;;0.57;0.20;;;16.60;99.90;;;;;;5082492;28;20763;-67
2021/05/23 09:08:27;;;;;;;0.27;0.27;;;16.00;99.90;;;;;;5079767;28;20263;-66
2021/05/23 09:10:56;;;;;;;0.00;0.00;;;15.70;99.90;;;;;;5077419;28;20199;-67
2021/05/23 09:13:28;;;;;;;0.37;0.37;;;15.50;99.90;;;;;;5081062;28;20235;-67
2021/05/23 09:15:59;;;;;;;0.20;0.20;;;15.20;99.90;;;;;;5079206;28;20571;-67
2021/05/23 09:18:38;;;;;;;0.17;0.17;;;16.20;99.90;;;;;;5078677;28;20641;-68
2021/05/23 09:21:04;;;;;;;0.50;0.50;;;16.80;99.90;;;;;;5079874;28;20598;-67
2021/05/23 09:23:44;;;;;;;0.30;0.30;;;16.40;99.90;;;;;;5080685;28;20213;-68
2021/05/23 09:26:15;;;;;;;0.20;0.20;;;15.60;99.90;;;;;;5077499;28;20206;-68
2021/05/23 09:28:41;;;;;;;0.10;0.10;;;15.20;99.90;;;;;;5078449;28;20285;-68
2021/05/23 09:31:12;;;;;;;0.10;0.10;;;15.40;99.90;;;;;;5080015;28;20206;-68
2021/05/23 09:33:47;;;;;;;0.03;0.03;;;16.40;99.90;;;;;;5081316;28;20194;-67
2021/05/23 09:36:15;;;;;;;0.70;0.70;;;16.30;99.90;;;;;;5084106;28;20236;-67
2021/05/23 09:38:51;;;;;;;0.20;0.20;;;15.90;99.90;;;;;;5089649;28;20345;-66
2021/05/23 09:41:20;;;;;;;0.40;0.40;;;15.80;99.90;;;;;;5085999;28;20198;-66
2021/05/23 09:43:46;;;;;;;0.70;0.57;;;16.80;99.90;;;;;;5086152;28;20705;-66
2021/05/23 09:46:13;;;;;;;0.10;0.10;;;17.90;99.90;;;;;;5085814;28;20202;-65
2021/05/23 09:48:48;;;;;;;0.47;0.40;;;18.20;99.90;;;;;;5084958;28;20637;-70
2021/05/23 09:51:17;;;;;;;0.37;0.30;;;17.40;99.90;;;;;;5079966;28;20724;-67
2021/05/23 09:53:57;;;;;;;0.40;0.20;;;16.20;99.90;;;;;;5076207;28;20202;-68
2021/05/23 09:56:30;;;;;;;0.30;0.30;;;15.60;99.90;;;;;;5080984;28;20198;-66
2021/05/23 09:58:57;;;;;;;0.90;0.33;;;16.10;99.90;;;;;;5078033;28;20194;-67
2021/05/23 10:01:25;;;;;;;0.73;0.73;;;16.90;99.90;;;;;;5077883;28;20198;-66
2021/05/23 10:03:53;;;;;;;0.67;0.27;;;18.10;99.90;;;;;;5079073;28;20205;-65
2021/05/23 10:06:26;;;;;;;3.80;0.87;;;18.60;99.90;;;;;;5076163;28;20195;-67
2021/05/23 10:08:54;;;;;;;0.50;0.50;;;18.20;99.90;;;;;;5078471;28;20290;-66
2021/05/23 10:11:20;;;;;;;0.23;0.23;;;17.40;99.90;;;;;;5081313;28;20670;-65
2021/05/23 10:13:47;;;;;;;0.40;0.40;;;17.10;99.90;;;;;;5081563;28;20234;-65
2021/05/23 10:16:13;;;;;;;0.30;0.30;;;17.60;99.90;;;;;;5078740;28;20207;-69
2021/05/23 10:18:41;;;;;;;3.33;2.50;;;18.20;99.90;;;;;;5075477;28;20220;-68
2021/05/23 10:21:08;;;;;;;1.77;1.17;;;18.80;99.90;;;;;;5075698;28;20205;-69
2021/05/23 10:23:39;;;;;;;0.53;0.53;;;19.10;99.90;;;;;;5085684;28;20257;-65
2021/05/23 10:26:09;;;;;;;0.20;0.20;;;19.30;99.90;;;;;;5087938;28;20583;-67
2021/05/23 10:28:41;;;;;;;2.10;0.70;;;19.50;99.90;;;;;;5078868;28;20194;-68
2021/05/23 10:31:09;;;;;;;0.17;0.17;;;19.50;99.90;;;;;;5078704;28;20202;-68
2021/05/23 10:33:35;;;;;;;0.30;0.30;;;19.30;99.90;;;;;;5077062;28;20213;-70
2021/05/23 10:36:05;;;;;;;2.03;0.20;;;18.50;99.90;;;;;;5076535;28;20206;-71
2021/05/23 10:38:32;;;;;;;0.73;0.73;;;18.10;99.90;;;;;;5078649;28;20715;-66
2021/05/23 10:41:00;;;;;;;1.07;0.70;;;18.40;99.90;;;;;;5079295;28;20228;-67
2021/05/23 10:43:29;;;;;;;0.03;0.03;;;18.50;99.90;;;;;;5082746;28;20255;-68
2021/05/23 10:46:09;;;;;;;1.17;0.50;;;18.80;99.90;;;;;;5077282;28;20230;-66
2021/05/23 10:48:37;;;;;;;1.13;1.13;;;19.10;99.90;;;;;;5078769;28;20701;-68
2021/05/23 10:51:14;;;;;;;0.10;0.10;;;18.40;99.90;;;;;;5085350;28;20198;-67
2021/05/23 10:53:41;;;;;;;0.50;0.50;;;18.10;99.90;;;;;;5079105;28;20209;-68
2021/05/23 10:56:23;;;;;;;0.22;0.20;;;18.80;99.90;;;;;;5078884;28;20210;-66
2021/05/23 10:58:55;;;;;;;0.90;0.90;;;18.60;99.90;;;;;;5076980;28;20199;-67
2021/05/23 11:01:39;;;;;;;7.93;0.50;;;18.20;99.90;;;;;;5080388;28;20199;-68
2021/05/23 11:04:08;;;;;;;0.30;0.23;;;17.90;99.90;;;;;;5078680;28;20573;-67
2021/05/23 11:06:34;;;;;;;0.20;0.20;;;17.80;99.90;;;;;;5081212;28;20198;-68
2021/05/23 11:09:06;;;;;;;0.40;0.40;;;17.90;99.90;;;;;;5078389;28;20202;-68
2021/05/23 11:11:33;;;;;;;0.00;0.00;;;17.60;99.90;;;;;;5078071;28;20622;-67
2021/05/23 11:14:18;;;;;;;0.00;0.00;;;17.70;99.90;;;;;;5084687;28;20556;-67
2021/05/23 11:16:46;;;;;;;0.20;0.20;;;18.00;99.90;;;;;;5076628;28;21807;-68
2021/05/23 11:19:13;;;;;;;0.17;0.17;;;18.30;99.90;;;;;;5082148;28;20201;-68
2021/05/23 11:21:41;;;;;;;0.00;0.00;;;18.40;99.90;;;;;;5078293;28;20202;-68
2021/05/23 11:24:09;;;;;;;0.17;0.10;;;18.40;99.90;;;;;;5085682;28;20355;-67
2021/05/23 11:26:37;;;;;;;1.75;0.10;;;18.90;99.90;;;;;;5083740;28;20195;-67
2021/05/23 11:29:05;;;;;;;0.98;0.35;;;19.10;99.90;;;;;;5077032;28;20194;-67
2021/05/23 11:31:34;;;;;;;0.20;0.10;;;19.00;99.90;;;;;;5081373;28;20567;-67
2021/05/23 11:34:02;;;;;;;0.28;0.20;;;19.20;99.90;;;;;;5078405;28;20206;-67
2021/05/23 11:36:30;;;;;;;0.00;0.00;;;19.60;99.90;;;;;;5086179;28;20193;-68
2021/05/23 11:38:58;;;;;;;0.80;0.65;;;19.70;99.90;;;;;;5082506;28;20275;-68
2021/05/23 11:41:29;;;;;;;1.02;0.85;;;19.30;99.90;;;;;;5086970;28;20201;-67
2021/05/23 11:43:57;;;;;;;0.00;0.00;;;18.80;99.90;;;;;;5085271;28;20270;-67
2021/05/23 11:46:25;;;;;;;0.17;0.17;;;18.70;99.90;;;;;;5078895;28;20217;-67
2021/05/23 11:48:54;;;;;;;0.40;0.28;;;19.10;99.90;;;;;;5079771;28;20214;-66
2021/05/23 11:51:24;;;;;;;3.60;0.55;;;19.90;99.90;;;;;;5081462;28;20199;-67
2021/05/23 11:53:52;;;;;;;0.08;0.05;;;20.20;99.90;;;;;;5082044;28;20594;-67
2021/05/23 11:56:20;;;;;;;0.88;0.47;;;20.60;99.90;;;;;;5081095;28;20682;-67
2021/05/23 11:58:49;;;;;;;0.00;0.00;;;21.20;99.90;;;;;;5080801;28;20252;-67
2021/05/23 12:01:21;;;;;;;0.20;0.20;;;21.50;99.90;;;;;;5081250;28;20289;-67
2021/05/23 12:04:00;;;;;;;0.03;0.03;;;21.60;99.90;;;;;;5079985;28;20941;-67
2021/05/23 12:06:27;;;;;;;0.10;0.05;;;21.60;99.90;;;;;;5078077;28;20203;-67
2021/05/23 12:09:05;;;;;;;0.20;0.17;;;21.60;99.90;;;;;;5081543;28;20198;-67
2021/05/23 12:11:40;;;;;;;0.30;0.22;;;20.50;99.90;;;;;;5082347;28;20201;-67
2021/05/23 12:14:18;;;;;;;0.20;0.20;;;20.20;99.90;;;;;;5083643;28;20251;-66
2021/05/23 12:16:45;;;;;;;2.38;0.13;;;20.00;99.90;;;;;;5082143;28;20263;-66
2021/05/23 12:19:12;;;;;;;0.13;0.13;;;19.30;99.90;;;;;;5084408;28;20202;-67
2021/05/23 12:21:39;;;;;;;1.38;0.68;;;18.60;99.90;;;;;;5079128;28;20603;-67
2021/05/23 12:24:06;;;;;;;0.00;0.00;;;18.30;99.90;;;;;;5074828;28;20199;-67
2021/05/23 12:26:34;;;;;;;0.00;0.00;;;18.20;99.90;;;;;;5076528;28;23220;-66
2021/05/23 12:29:00;;;;;;;0.20;0.20;;;18.50;99.90;;;;;;5086467;28;20194;-66
2021/05/23 12:31:27;;;;;;;0.00;0.00;;;18.90;99.90;;;;;;5079338;28;20216;-67
2021/05/23 12:33:56;;;;;;;0.93;0.87;;;18.80;99.90;;;;;;5080979;28;20312;-66
2021/05/23 12:36:26;;;;;;;0.00;0.00;;;18.60;99.90;;;;;;5083414;28;20210;-66
2021/05/23 12:38:58;;;;;;;0.15;0.15;;;18.80;99.90;;;;;;5085256;28;20206;-67
2021/05/23 12:41:36;;;;;;;0.00;0.00;;;19.50;99.90;;;;;;5085860;28;20202;-66
2021/05/23 12:44:03;;;;;;;0.08;0.08;;;20.70;99.90;;;;;;5082204;28;20209;-66
2021/05/23 12:46:30;;;;;;;0.77;0.77;;;21.70;99.90;;;;;;5082744;28;20206;-66
2021/05/23 12:48:57;;;;;;;0.10;0.10;;;21.20;99.90;;;;;;5084323;28;20235;-67
2021/05/23 12:51:27;;;;;;;0.00;0.00;;;20.80;99.90;;;;;;5080989;28;20202;-66
2021/05/23 12:53:54;;;;;;;0.20;0.20;;;20.40;99.90;;;;;;5081280;28;20202;-67